sensor_id;sensor_type;location;lat;lon;timestamp;temperature;humidity
15286;DHT22;7744;52.172;10.668;2023-01-15T00:03:48;10.00;99.90
15286;DHT22;7744;52.172;10.668;2023-01-15T00:06:15;10.00;99.90
15286;DHT22;7744;52.172;10.668;2023-01-15T00:08:41;10.00;99.90
15286;DHT22;7744;52.172;10.668;2023-01-15T00:11:07;10.00;99.90
15286;DHT22;7744;52.172;10.668;2023-01-15T00:13:33;9.90;99.90
15286;DHT22;7744;52.172;10.668;2023-01-15T00:16:12;10.00;99.90
15286;DHT22;7744;52.172;10.668;2023-01-15T00:18:38;10.00;99.90
15286;DHT22;7744;52.172;10.668;2023-01-15T00:21:05;10.00;99.90
15286;DHT22;7744;52.172;10.668;2023-01-15T00:23:32;10.00;99.90
15286;DHT22;7744;52.172;10.668;2023-01-15T00:26:18;9.90;99.90
15286;DHT22;7744;52.172;10.668;2023-01-15T00:29:03;9.80;99.90
15286;DHT22;7744;52.172;10.668;2023-01-15T00:31:30;9.80;99.90
15286;DHT22;7744;52.172;10.668;2023-01-15T00:33:56;9.70;99.90
15286;DHT22;7744;52.172;10.668;2023-01-15T00:36:22;9.70;99.90
15286;DHT22;7744;52.172;10.668;2023-01-15T00:38:47;9.60;99.90
15286;DHT22;7744;52.172;10.668;2023-01-15T00:41:13;9.70;99.90
15286;DHT22;7744;52.172;10.668;2023-01-15T00:43:38;9.60;99.90
15286;DHT22;7744;52.172;10.668;2023-01-15T00:46:04;9.50;1.00
15286;DHT22;7744;52.172;10.668;2023-01-15T00:48:33;9.50;1.00
15286;DHT22;7744;52.172;10.668;2023-01-15T00:50:58;9.50;1.00
15286;DHT22;7744;52.172;10.668;2023-01-15T00:53:24;9.40;1.00
15286;DHT22;7744;52.172;10.668;2023-01-15T00:55:49;9.30;1.00
15286;DHT22;7744;52.172;10.668;2023-01-15T00:58:15;9.30;1.00
15286;DHT22;7744;52.172;10.668;2023-01-15T01:00:41;9.30;1.00
15286;DHT22;7744;52.172;10.668;2023-01-15T01:03:06;9.30;1.00
15286;DHT22;7744;52.172;10.668;2023-01-15T01:05:32;9.30;1.00
15286;DHT22;7744;52.172;10.668;2023-01-15T01:07:57;9.30;1.00
15286;DHT22;7744;52.172;10.668;2023-01-15T01:10:24;9.20;1.00
15286;DHT22;7744;52.172;10.668;2023-01-15T01:12:50;9.20;1.00
15286;DHT22;7744;52.172;10.668;2023-01-15T01:15:20;9.10;1.00
15286;DHT22;7744;52.172;10.668;2023-01-15T01:17:46;9.20;1.00
15286;DHT22;7744;52.172;10.668;2023-01-15T01:20:13;9.10;1.00
15286;DHT22;7744;52.172;10.668;2023-01-15T01:22:39;9.10;1.00
15286;DHT22;7744;52.172;10.668;2023-01-15T01:25:05;8.90;1.00
15286;DHT22;7744;52.172;10.668;2023-01-15T01:27:31;8.50;1.00
15286;DHT22;7744;52.172;10.668;2023-01-15T01:29:57;8.20;1.00
15286;DHT22;7744;52.172;10.668;2023-01-15T01:32:22;7.90;1.00
15286;DHT22;7744;52.172;10.668;2023-01-15T01:34:48;7.80;1.00
15286;DHT22;7744;52.172;10.668;2023-01-15T01:37:13;7.50;1.00
15286;DHT22;7744;52.172;10.668;2023-01-15T01:39:39;7.40;1.00
15286;DHT22;7744;52.172;10.668;2023-01-15T01:42:11;7.30;1.00
15286;DHT22;7744;52.172;10.668;2023-01-15T01:47:08;7.20;1.00
15286;DHT22;7744;52.172;10.668;2023-01-15T01:49:35;7.10;1.00
15286;DHT22;7744;52.172;10.668;2023-01-15T01:52:19;7.10;1.00
15286;DHT22;7744;52.172;10.668;2023-01-15T01:59:56;6.80;1.00
15286;DHT22;7744;52.172;10.668;2023-01-15T02:02:23;6.70;99.90
15286;DHT22;7744;52.172;10.668;2023-01-15T02:04:49;6.70;1.00
15286;DHT22;7744;52.172;10.668;2023-01-15T02:07:15;6.60;1.00
15286;DHT22;7744;52.172;10.668;2023-01-15T02:17:28;6.30;99.90
15286;DHT22;7744;52.172;10.668;2023-01-15T02:26:46;6.00;99.90
15286;DHT22;7744;52.172;10.668;2023-01-15T02:29:18;5.90;99.90
15286;DHT22;7744;52.172;10.668;2023-01-15T02:31:49;5.90;99.90
15286;DHT22;7744;52.172;10.668;2023-01-15T02:34:21;5.90;99.90
15286;DHT22;7744;52.172;10.668;2023-01-15T02:36:52;5.90;99.90
15286;DHT22;7744;52.172;10.668;2023-01-15T02:39:20;6.00;99.90
15286;DHT22;7744;52.172;10.668;2023-01-15T02:41:49;6.00;99.90
15286;DHT22;7744;52.172;10.668;2023-01-15T02:44:19;5.90;99.90
15286;DHT22;7744;52.172;10.668;2023-01-15T02:46:46;5.80;99.90
15286;DHT22;7744;52.172;10.668;2023-01-15T02:49:16;5.90;99.90
15286;DHT22;7744;52.172;10.668;2023-01-15T02:51:47;5.90;99.90
15286;DHT22;7744;52.172;10.668;2023-01-15T02:56:44;5.90;99.90
15286;DHT22;7744;52.172;10.668;2023-01-15T02:59:16;5.90;99.90
15286;DHT22;7744;52.172;10.668;2023-01-15T03:04:46;5.80;99.90
15286;DHT22;7744;52.172;10.668;2023-01-15T03:09:49;5.70;99.90
15286;DHT22;7744;52.172;10.668;2023-01-15T03:12:43;5.70;99.90
15286;DHT22;7744;52.172;10.668;2023-01-15T03:16:00;5.60;99.90
15286;DHT22;7744;52.172;10.668;2023-01-15T03:18:55;5.50;99.90
15286;DHT22;7744;52.172;10.668;2023-01-15T03:21:47;4.80;99.90
15286;DHT22;7744;52.172;10.668;2023-01-15T03:24:20;5.60;99.90
15286;DHT22;7744;52.172;10.668;2023-01-15T03:26:49;5.60;99.90
15286;DHT22;7744;52.172;10.668;2023-01-15T03:29:15;5.60;99.90
15286;DHT22;7744;52.172;10.668;2023-01-15T03:31:41;5.60;99.90
15286;DHT22;7744;52.172;10.668;2023-01-15T03:34:09;5.60;99.90
15286;DHT22;7744;52.172;10.668;2023-01-15T03:36:36;5.60;99.90
15286;DHT22;7744;52.172;10.668;2023-01-15T03:39:02;5.60;99.90
15286;DHT22;7744;52.172;10.668;2023-01-15T03:41:40;5.60;99.90
15286;DHT22;7744;52.172;10.668;2023-01-15T03:47:11;5.50;99.90
15286;DHT22;7744;52.172;10.668;2023-01-15T03:49:49;5.50;99.90
15286;DHT22;7744;52.172;10.668;2023-01-15T03:52:19;5.60;99.90
15286;DHT22;7744;52.172;10.668;2023-01-15T03:57:35;6.00;99.90
15286;DHT22;7744;52.172;10.668;2023-01-15T04:00:13;5.50;99.90
15286;DHT22;7744;52.172;10.668;2023-01-15T04:02:42;5.50;99.90
15286;DHT22;7744;52.172;10.668;2023-01-15T04:05:09;5.50;99.90
15286;DHT22;7744;52.172;10.668;2023-01-15T04:07:35;5.50;99.90
15286;DHT22;7744;52.172;10.668;2023-01-15T04:10:00;5.50;99.90
15286;DHT22;7744;52.172;10.668;2023-01-15T04:12:26;5.40;99.90
15286;DHT22;7744;52.172;10.668;2023-01-15T04:14:52;5.50;99.90
15286;DHT22;7744;52.172;10.668;2023-01-15T04:17:18;5.50;99.90
15286;DHT22;7744;52.172;10.668;2023-01-15T04:19:43;5.50;99.90
15286;DHT22;7744;52.172;10.668;2023-01-15T04:22:10;5.50;99.90
15286;DHT22;7744;52.172;10.668;2023-01-15T04:24:36;5.50;99.90
15286;DHT22;7744;52.172;10.668;2023-01-15T04:27:02;5.50;99.90
15286;DHT22;7744;52.172;10.668;2023-01-15T04:29:28;5.50;99.90
15286;DHT22;7744;52.172;10.668;2023-01-15T04:31:53;5.60;99.90
15286;DHT22;7744;52.172;10.668;2023-01-15T04:34:25;5.60;99.90
15286;DHT22;7744;52.172;10.668;2023-01-15T04:36:52;5.50;99.90
15286;DHT22;7744;52.172;10.668;2023-01-15T04:39:17;5.50;99.90
15286;DHT22;7744;52.172;10.668;2023-01-15T04:41:43;5.40;99.90
15286;DHT22;7744;52.172;10.668;2023-01-15T04:44:27;5.40;99.90
15286;DHT22;7744;52.172;10.668;2023-01-15T04:46:54;5.50;99.90
15286;DHT22;7744;52.172;10.668;2023-01-15T04:49:21;5.50;99.90
15286;DHT22;7744;52.172;10.668;2023-01-15T04:51:47;5.50;99.90
15286;DHT22;7744;52.172;10.668;2023-01-15T04:54:14;5.60;99.90
15286;DHT22;7744;52.172;10.668;2023-01-15T04:56:45;5.50;99.90
15286;DHT22;7744;52.172;10.668;2023-01-15T04:59:12;5.70;99.90
15286;DHT22;7744;52.172;10.668;2023-01-15T05:01:38;5.70;80.80
15286;DHT22;7744;52.172;10.668;2023-01-15T05:04:04;5.60;81.10
15286;DHT22;7744;52.172;10.668;2023-01-15T05:06:30;5.60;87.90
15286;DHT22;7744;52.172;10.668;2023-01-15T05:08:56;5.60;57.20
15286;DHT22;7744;52.172;10.668;2023-01-15T05:11:22;5.60;63.20
15286;DHT22;7744;52.172;10.668;2023-01-15T05:13:48;5.60;90.50
15286;DHT22;7744;52.172;10.668;2023-01-15T05:16:17;5.60;90.20
15286;DHT22;7744;52.172;10.668;2023-01-15T05:18:44;6.50;91.80
15286;DHT22;7744;52.172;10.668;2023-01-15T05:21:15;5.60;99.90
15286;DHT22;7744;52.172;10.668;2023-01-15T05:23:41;5.60;99.30
15286;DHT22;7744;52.172;10.668;2023-01-15T05:26:06;5.60;97.60
15286;DHT22;7744;52.172;10.668;2023-01-15T05:28:32;5.70;97.80
15286;DHT22;7744;52.172;10.668;2023-01-15T05:30:57;5.70;99.90
15286;DHT22;7744;52.172;10.668;2023-01-15T05:33:23;5.70;53.70
15286;DHT22;7744;52.172;10.668;2023-01-15T05:35:49;5.60;58.00
15286;DHT22;7744;52.172;10.668;2023-01-15T05:38:14;5.70;56.10
15286;DHT22;7744;52.172;10.668;2023-01-15T05:40:40;5.70;37.20
15286;DHT22;7744;52.172;10.668;2023-01-15T05:43:05;5.70;33.70
15286;DHT22;7744;52.172;10.668;2023-01-15T05:45:33;5.70;57.40
15286;DHT22;7744;52.172;10.668;2023-01-15T05:48:00;5.80;49.40
15286;DHT22;7744;52.172;10.668;2023-01-15T05:50:25;5.70;44.50
15286;DHT22;7744;52.172;10.668;2023-01-15T05:52:51;5.70;43.30
15286;DHT22;7744;52.172;10.668;2023-01-15T05:55:16;5.60;25.80
15286;DHT22;7744;52.172;10.668;2023-01-15T05:57:42;5.60;48.90
15286;DHT22;7744;52.172;10.668;2023-01-15T06:00:08;5.60;49.90
15286;DHT22;7744;52.172;10.668;2023-01-15T06:02:34;5.60;77.50
15286;DHT22;7744;52.172;10.668;2023-01-15T06:04:59;5.60;51.90
15286;DHT22;7744;52.172;10.668;2023-01-15T06:07:25;5.60;47.30
15286;DHT22;7744;52.172;10.668;2023-01-15T06:09:50;5.60;26.00
15286;DHT22;7744;52.172;10.668;2023-01-15T06:12:16;5.60;24.30
15286;DHT22;7744;52.172;10.668;2023-01-15T06:14:41;5.60;27.80
15286;DHT22;7744;52.172;10.668;2023-01-15T06:17:07;5.60;18.80
15286;DHT22;7744;52.172;10.668;2023-01-15T06:19:32;5.60;1.00
15286;DHT22;7744;52.172;10.668;2023-01-15T06:21:58;5.70;22.50
15286;DHT22;7744;52.172;10.668;2023-01-15T06:24:23;5.70;6.60
15286;DHT22;7744;52.172;10.668;2023-01-15T06:26:49;5.70;7.50
15286;DHT22;7744;52.172;10.668;2023-01-15T06:29:14;5.60;12.00
15286;DHT22;7744;52.172;10.668;2023-01-15T06:31:45;5.60;2.60
15286;DHT22;7744;52.172;10.668;2023-01-15T06:34:10;5.70;1.00
15286;DHT22;7744;52.172;10.668;2023-01-15T06:36:36;5.70;1.90
15286;DHT22;7744;52.172;10.668;2023-01-15T06:39:01;5.70;1.00
15286;DHT22;7744;52.172;10.668;2023-01-15T06:41:27;5.60;1.40
15286;DHT22;7744;52.172;10.668;2023-01-15T06:44:14;5.60;2.50
15286;DHT22;7744;52.172;10.668;2023-01-15T06:47:01;5.60;1.00
15286;DHT22;7744;52.172;10.668;2023-01-15T06:49:46;5.60;10.80
15286;DHT22;7744;52.172;10.668;2023-01-15T06:52:12;5.60;1.00
15286;DHT22;7744;52.172;10.668;2023-01-15T06:54:38;5.60;2.10
15286;DHT22;7744;52.172;10.668;2023-01-15T06:57:03;5.60;1.50
15286;DHT22;7744;52.172;10.668;2023-01-15T06:59:30;5.60;1.00
15286;DHT22;7744;52.172;10.668;2023-01-15T07:01:56;5.60;1.00
15286;DHT22;7744;52.172;10.668;2023-01-15T07:04:21;5.60;1.00
15286;DHT22;7744;52.172;10.668;2023-01-15T07:06:47;5.60;1.00
15286;DHT22;7744;52.172;10.668;2023-01-15T07:09:12;5.60;1.00
15286;DHT22;7744;52.172;10.668;2023-01-15T07:11:38;5.50;1.00
15286;DHT22;7744;52.172;10.668;2023-01-15T07:14:21;5.50;1.00
15286;DHT22;7744;52.172;10.668;2023-01-15T07:16:48;5.50;1.00
15286;DHT22;7744;52.172;10.668;2023-01-15T07:19:14;5.50;1.00
15286;DHT22;7744;52.172;10.668;2023-01-15T07:21:40;5.60;1.00
15286;DHT22;7744;52.172;10.668;2023-01-15T07:24:06;5.60;1.00
15286;DHT22;7744;52.172;10.668;2023-01-15T07:26:32;5.60;1.00
15286;DHT22;7744;52.172;10.668;2023-01-15T07:28:57;5.60;1.00
15286;DHT22;7744;52.172;10.668;2023-01-15T07:31:23;5.60;1.00
15286;DHT22;7744;52.172;10.668;2023-01-15T07:33:49;5.60;1.00
15286;DHT22;7744;52.172;10.668;2023-01-15T07:36:14;5.70;1.00
15286;DHT22;7744;52.172;10.668;2023-01-15T07:38:40;5.80;1.00
15286;DHT22;7744;52.172;10.668;2023-01-15T07:41:05;5.70;1.00
15286;DHT22;7744;52.172;10.668;2023-01-15T07:43:49;5.80;1.00
15286;DHT22;7744;52.172;10.668;2023-01-15T07:46:33;5.80;1.00
15286;DHT22;7744;52.172;10.668;2023-01-15T07:49:18;5.80;1.00
15286;DHT22;7744;52.172;10.668;2023-01-15T07:52:02;5.80;1.00
15286;DHT22;7744;52.172;10.668;2023-01-15T07:54:27;5.80;1.00
15286;DHT22;7744;52.172;10.668;2023-01-15T07:56:54;5.80;1.00
15286;DHT22;7744;52.172;10.668;2023-01-15T07:59:21;5.80;1.00
15286;DHT22;7744;52.172;10.668;2023-01-15T08:01:47;5.80;1.00
15286;DHT22;7744;52.172;10.668;2023-01-15T08:04:12;5.50;1.00
15286;DHT22;7744;52.172;10.668;2023-01-15T08:06:38;5.80;1.00
15286;DHT22;7744;52.172;10.668;2023-01-15T08:09:04;5.80;1.00
15286;DHT22;7744;52.172;10.668;2023-01-15T08:11:29;5.90;1.00
15286;DHT22;7744;52.172;10.668;2023-01-15T08:14:14;5.80;1.00
15286;DHT22;7744;52.172;10.668;2023-01-15T08:16:58;5.80;1.00
15286;DHT22;7744;52.172;10.668;2023-01-15T08:19:24;5.80;1.00
15286;DHT22;7744;52.172;10.668;2023-01-15T08:21:50;5.80;1.00
15286;DHT22;7744;52.172;10.668;2023-01-15T08:24:16;5.80;1.00
15286;DHT22;7744;52.172;10.668;2023-01-15T08:26:42;5.80;1.00
15286;DHT22;7744;52.172;10.668;2023-01-15T08:29:07;5.80;1.00
15286;DHT22;7744;52.172;10.668;2023-01-15T08:31:33;5.80;1.00
15286;DHT22;7744;52.172;10.668;2023-01-15T08:33:59;5.80;1.00
15286;DHT22;7744;52.172;10.668;2023-01-15T08:36:25;5.90;1.00
15286;DHT22;7744;52.172;10.668;2023-01-15T08:38:51;5.90;1.00
15286;DHT22;7744;52.172;10.668;2023-01-15T08:41:16;5.90;1.00
15286;DHT22;7744;52.172;10.668;2023-01-15T08:43:42;5.90;1.00
15286;DHT22;7744;52.172;10.668;2023-01-15T08:46:10;5.90;1.00
15286;DHT22;7744;52.172;10.668;2023-01-15T08:48:36;5.80;1.00
15286;DHT22;7744;52.172;10.668;2023-01-15T08:51:06;5.90;1.00
15286;DHT22;7744;52.172;10.668;2023-01-15T08:53:32;5.90;1.00
15286;DHT22;7744;52.172;10.668;2023-01-15T08:55:57;5.80;1.00
15286;DHT22;7744;52.172;10.668;2023-01-15T08:58:23;5.90;1.00
15286;DHT22;7744;52.172;10.668;2023-01-15T09:00:51;5.80;1.00
15286;DHT22;7744;52.172;10.668;2023-01-15T09:03:16;5.90;1.00
15286;DHT22;7744;52.172;10.668;2023-01-15T09:05:42;5.90;1.00
15286;DHT22;7744;52.172;10.668;2023-01-15T09:08:07;5.90;1.00
15286;DHT22;7744;52.172;10.668;2023-01-15T09:10:33;5.90;1.00
15286;DHT22;7744;52.172;10.668;2023-01-15T09:13:00;6.00;1.00
15286;DHT22;7744;52.172;10.668;2023-01-15T09:15:30;6.00;1.00
15286;DHT22;7744;52.172;10.668;2023-01-15T09:17:55;6.00;1.00
15286;DHT22;7744;52.172;10.668;2023-01-15T09:20:21;6.00;1.00
15286;DHT22;7744;52.172;10.668;2023-01-15T09:22:47;5.90;1.00
15286;DHT22;7744;52.172;10.668;2023-01-15T09:25:14;6.70;1.00
15286;DHT22;7744;52.172;10.668;2023-01-15T09:27:41;5.90;1.00
15286;DHT22;7744;52.172;10.668;2023-01-15T09:30:09;5.90;1.00
15286;DHT22;7744;52.172;10.668;2023-01-15T09:32:35;6.00;1.00
15286;DHT22;7744;52.172;10.668;2023-01-15T09:35:00;6.00;1.00
15286;DHT22;7744;52.172;10.668;2023-01-15T09:37:26;6.00;1.00
15286;DHT22;7744;52.172;10.668;2023-01-15T09:39:52;6.00;1.00
15286;DHT22;7744;52.172;10.668;2023-01-15T09:42:42;6.00;1.00
15286;DHT22;7744;52.172;10.668;2023-01-15T09:45:24;6.00;1.00
15286;DHT22;7744;52.172;10.668;2023-01-15T09:51:22;6.00;1.00
15286;DHT22;7744;52.172;10.668;2023-01-15T09:56:30;6.00;1.00
15286;DHT22;7744;52.172;10.668;2023-01-15T09:58:59;6.00;1.00
15286;DHT22;7744;52.172;10.668;2023-01-15T10:01:30;6.00;1.00
15286;DHT22;7744;52.172;10.668;2023-01-15T10:04:15;6.00;1.00
15286;DHT22;7744;52.172;10.668;2023-01-15T10:06:50;6.10;1.00
15286;DHT22;7744;52.172;10.668;2023-01-15T10:09:24;6.10;1.00
15286;DHT22;7744;52.172;10.668;2023-01-15T10:11:58;6.00;1.00
15286;DHT22;7744;52.172;10.668;2023-01-15T10:14:49;6.00;1.00
15286;DHT22;7744;52.172;10.668;2023-01-15T10:17:25;6.10;1.00
15286;DHT22;7744;52.172;10.668;2023-01-15T10:19:51;6.10;1.00
15286;DHT22;7744;52.172;10.668;2023-01-15T10:22:27;6.20;1.00
15286;DHT22;7744;52.172;10.668;2023-01-15T10:24:56;6.20;1.00
15286;DHT22;7744;52.172;10.668;2023-01-15T10:27:26;6.20;1.00
15286;DHT22;7744;52.172;10.668;2023-01-15T10:30:04;6.20;1.00
15286;DHT22;7744;52.172;10.668;2023-01-15T10:32:46;6.20;1.00
15286;DHT22;7744;52.172;10.668;2023-01-15T10:35:44;6.20;1.00
15286;DHT22;7744;52.172;10.668;2023-01-15T10:46:25;6.20;1.00
15286;DHT22;7744;52.172;10.668;2023-01-15T10:49:13;6.10;1.00
15286;DHT22;7744;52.172;10.668;2023-01-15T10:51:55;6.00;1.00
15286;DHT22;7744;52.172;10.668;2023-01-15T10:57:17;5.80;1.00
15286;DHT22;7744;52.172;10.668;2023-01-15T10:59:57;5.70;1.00
15286;DHT22;7744;52.172;10.668;2023-01-15T11:04:57;5.70;1.00
15286;DHT22;7744;52.172;10.668;2023-01-15T11:07:40;5.70;1.00
15286;DHT22;7744;52.172;10.668;2023-01-15T11:10:08;5.70;1.00
15286;DHT22;7744;52.172;10.668;2023-01-15T11:13:12;5.70;1.00
15286;DHT22;7744;52.172;10.668;2023-01-15T11:15:59;5.70;1.00
15286;DHT22;7744;52.172;10.668;2023-01-15T11:18:44;5.70;1.00
15286;DHT22;7744;52.172;10.668;2023-01-15T11:21:29;5.70;1.00
15286;DHT22;7744;52.172;10.668;2023-01-15T11:23:57;5.80;1.00
15286;DHT22;7744;52.172;10.668;2023-01-15T11:26:31;5.80;1.00
15286;DHT22;7744;52.172;10.668;2023-01-15T11:28:59;5.80;1.00
15286;DHT22;7744;52.172;10.668;2023-01-15T11:31:39;5.80;1.00
15286;DHT22;7744;52.172;10.668;2023-01-15T11:34:15;5.80;1.00
15286;DHT22;7744;52.172;10.668;2023-01-15T11:36:42;5.90;1.00
15286;DHT22;7744;52.172;10.668;2023-01-15T11:39:25;5.90;1.00
15286;DHT22;7744;52.172;10.668;2023-01-15T11:42:04;6.00;1.00
15286;DHT22;7744;52.172;10.668;2023-01-15T11:44:55;6.00;1.00
15286;DHT22;7744;52.172;10.668;2023-01-15T11:47:52;6.00;1.00
15286;DHT22;7744;52.172;10.668;2023-01-15T11:51:07;6.10;1.00
15286;DHT22;7744;52.172;10.668;2023-01-15T11:53:39;6.10;1.00
15286;DHT22;7744;52.172;10.668;2023-01-15T11:56:15;6.10;1.00
15286;DHT22;7744;52.172;10.668;2023-01-15T11:58:47;6.20;1.00
15286;DHT22;7744;52.172;10.668;2023-01-15T12:01:30;6.10;1.00
15286;DHT22;7744;52.172;10.668;2023-01-15T12:03:59;6.20;1.00
15286;DHT22;7744;52.172;10.668;2023-01-15T12:06:25;6.30;1.00
15286;DHT22;7744;52.172;10.668;2023-01-15T12:11:55;6.30;1.00
15286;DHT22;7744;52.172;10.668;2023-01-15T12:14:45;6.40;1.00
15286;DHT22;7744;52.172;10.668;2023-01-15T12:22:49;6.40;1.00
15286;DHT22;7744;52.172;10.668;2023-01-15T12:28:12;6.40;1.00
15286;DHT22;7744;52.172;10.668;2023-01-15T12:30:57;6.40;1.00
15286;DHT22;7744;52.172;10.668;2023-01-15T12:36:24;6.10;1.00
15286;DHT22;7744;52.172;10.668;2023-01-15T12:38:56;6.50;1.00
15286;DHT22;7744;52.172;10.668;2023-01-15T12:44:15;6.50;1.00
15286;DHT22;7744;52.172;10.668;2023-01-15T12:47:02;6.40;1.00
15286;DHT22;7744;52.172;10.668;2023-01-15T12:52:35;6.50;1.00
15286;DHT22;7744;52.172;10.668;2023-01-15T12:55:12;6.50;1.00
15286;DHT22;7744;52.172;10.668;2023-01-15T12:57:42;6.50;1.00
15286;DHT22;7744;52.172;10.668;2023-01-15T13:05:15;6.70;1.00
15286;DHT22;7744;52.172;10.668;2023-01-15T13:07:48;6.70;1.00
15286;DHT22;7744;52.172;10.668;2023-01-15T13:10:24;6.70;1.00
15286;DHT22;7744;52.172;10.668;2023-01-15T13:12:58;6.70;1.00
15286;DHT22;7744;52.172;10.668;2023-01-15T13:15:32;6.80;1.00
15286;DHT22;7744;52.172;10.668;2023-01-15T13:18:08;6.80;1.00
15286;DHT22;7744;52.172;10.668;2023-01-15T13:20:47;6.90;1.00
15286;DHT22;7744;52.172;10.668;2023-01-15T13:29:06;6.80;1.00
15286;DHT22;7744;52.172;10.668;2023-01-15T13:34:25;6.80;1.00
15286;DHT22;7744;52.172;10.668;2023-01-15T13:36:52;6.80;1.00
15286;DHT22;7744;52.172;10.668;2023-01-15T13:39:22;6.90;1.00
15286;DHT22;7744;52.172;10.668;2023-01-15T13:41:51;7.00;1.00
15286;DHT22;7744;52.172;10.668;2023-01-15T13:44:38;6.90;1.00
15286;DHT22;7744;52.172;10.668;2023-01-15T13:47:12;6.70;1.00
15286;DHT22;7744;52.172;10.668;2023-01-15T13:49:40;6.70;1.00
15286;DHT22;7744;52.172;10.668;2023-01-15T13:52:23;6.80;1.00
15286;DHT22;7744;52.172;10.668;2023-01-15T13:54:51;6.90;1.00
15286;DHT22;7744;52.172;10.668;2023-01-15T13:59:48;6.90;1.00
15286;DHT22;7744;52.172;10.668;2023-01-15T14:02:36;6.90;1.00
15286;DHT22;7744;52.172;10.668;2023-01-15T14:05:29;6.90;1.00
15286;DHT22;7744;52.172;10.668;2023-01-15T14:07:56;6.80;1.00
15286;DHT22;7744;52.172;10.668;2023-01-15T14:16:33;6.70;1.00
15286;DHT22;7744;52.172;10.668;2023-01-15T14:24:19;6.70;1.00
15286;DHT22;7744;52.172;10.668;2023-01-15T14:30:23;6.70;1.00
15286;DHT22;7744;52.172;10.668;2023-01-15T14:35:23;6.70;1.00
15286;DHT22;7744;52.172;10.668;2023-01-15T14:37:55;6.70;1.00
15286;DHT22;7744;52.172;10.668;2023-01-15T14:40:32;6.70;1.00
15286;DHT22;7744;52.172;10.668;2023-01-15T14:43:07;6.70;1.00
15286;DHT22;7744;52.172;10.668;2023-01-15T14:45:40;6.70;1.00
15286;DHT22;7744;52.172;10.668;2023-01-15T14:48:19;6.70;1.00
15286;DHT22;7744;52.172;10.668;2023-01-15T14:50:46;6.70;1.00
15286;DHT22;7744;52.172;10.668;2023-01-15T14:53:16;6.70;1.00
15286;DHT22;7744;52.172;10.668;2023-01-15T15:01:31;6.60;1.00
15286;DHT22;7744;52.172;10.668;2023-01-15T15:06:40;6.50;1.00
15286;DHT22;7744;52.172;10.668;2023-01-15T15:09:10;6.60;1.00
15286;DHT22;7744;52.172;10.668;2023-01-15T15:14:25;6.60;1.00
15286;DHT22;7744;52.172;10.668;2023-01-15T15:16:52;6.60;1.00
15286;DHT22;7744;52.172;10.668;2023-01-15T15:19:39;6.60;1.00
15286;DHT22;7744;52.172;10.668;2023-01-15T15:22:12;6.60;1.00
15286;DHT22;7744;52.172;10.668;2023-01-15T15:24:45;6.60;1.00
15286;DHT22;7744;52.172;10.668;2023-01-15T15:27:17;6.60;1.00
15286;DHT22;7744;52.172;10.668;2023-01-15T15:29:43;6.60;1.00
15286;DHT22;7744;52.172;10.668;2023-01-15T15:32:17;6.60;1.00
15286;DHT22;7744;52.172;10.668;2023-01-15T15:34:45;6.60;1.00
15286;DHT22;7744;52.172;10.668;2023-01-15T15:37:17;6.60;1.00
15286;DHT22;7744;52.172;10.668;2023-01-15T15:42:34;6.60;1.00
15286;DHT22;7744;52.172;10.668;2023-01-15T15:45:24;6.60;1.00
15286;DHT22;7744;52.172;10.668;2023-01-15T15:51:02;6.50;1.00
15286;DHT22;7744;52.172;10.668;2023-01-15T15:53:28;6.60;1.00
15286;DHT22;7744;52.172;10.668;2023-01-15T15:55:55;6.60;1.00
15286;DHT22;7744;52.172;10.668;2023-01-15T15:58:32;6.60;1.00
15286;DHT22;7744;52.172;10.668;2023-01-15T16:00:59;6.60;1.00
15286;DHT22;7744;52.172;10.668;2023-01-15T16:03:28;6.50;1.00
15286;DHT22;7744;52.172;10.668;2023-01-15T16:06:01;6.60;1.00
15286;DHT22;7744;52.172;10.668;2023-01-15T16:08:29;6.50;1.00
15286;DHT22;7744;52.172;10.668;2023-01-15T16:10:59;6.50;1.00
15286;DHT22;7744;52.172;10.668;2023-01-15T16:13:29;6.50;1.00
15286;DHT22;7744;52.172;10.668;2023-01-15T16:15:57;6.40;1.00
15286;DHT22;7744;52.172;10.668;2023-01-15T16:18:30;6.50;1.00
15286;DHT22;7744;52.172;10.668;2023-01-15T16:20:57;6.50;1.00
15286;DHT22;7744;52.172;10.668;2023-01-15T16:23:25;6.50;1.00
15286;DHT22;7744;52.172;10.668;2023-01-15T16:28:36;6.50;1.00
15286;DHT22;7744;52.172;10.668;2023-01-15T16:31:03;6.80;1.00
15286;DHT22;7744;52.172;10.668;2023-01-15T16:33:30;6.50;1.00
15286;DHT22;7744;52.172;10.668;2023-01-15T16:35:57;6.60;1.00
15286;DHT22;7744;52.172;10.668;2023-01-15T16:38:23;6.50;1.00
15286;DHT22;7744;52.172;10.668;2023-01-15T16:40:49;6.50;1.00
15286;DHT22;7744;52.172;10.668;2023-01-15T16:43:18;6.40;1.00
15286;DHT22;7744;52.172;10.668;2023-01-15T16:46:02;6.30;1.00
15286;DHT22;7744;52.172;10.668;2023-01-15T16:48:36;6.30;1.00
15286;DHT22;7744;52.172;10.668;2023-01-15T16:51:30;6.20;1.00
15286;DHT22;7744;52.172;10.668;2023-01-15T16:53:57;6.30;1.00
15286;DHT22;7744;52.172;10.668;2023-01-15T17:02:16;6.30;1.00
15286;DHT22;7744;52.172;10.668;2023-01-15T17:04:43;6.30;1.00
15286;DHT22;7744;52.172;10.668;2023-01-15T17:09:43;6.30;1.00
15286;DHT22;7744;52.172;10.668;2023-01-15T17:14:50;6.50;1.00
15286;DHT22;7744;52.172;10.668;2023-01-15T17:19:53;6.40;1.00
15286;DHT22;7744;52.172;10.668;2023-01-15T17:22:27;6.40;1.00
15286;DHT22;7744;52.172;10.668;2023-01-15T17:24:58;6.40;1.00
15286;DHT22;7744;52.172;10.668;2023-01-15T17:27:25;6.40;1.00
15286;DHT22;7744;52.172;10.668;2023-01-15T17:29:51;6.40;1.00
15286;DHT22;7744;52.172;10.668;2023-01-15T17:32:31;6.40;1.00
15286;DHT22;7744;52.172;10.668;2023-01-15T17:34:57;6.40;1.00
15286;DHT22;7744;52.172;10.668;2023-01-15T17:37:23;6.40;1.00
15286;DHT22;7744;52.172;10.668;2023-01-15T17:39:48;6.40;1.00
15286;DHT22;7744;52.172;10.668;2023-01-15T17:42:18;6.40;1.00
15286;DHT22;7744;52.172;10.668;2023-01-15T17:44:44;6.30;1.00
15286;DHT22;7744;52.172;10.668;2023-01-15T17:49:36;6.20;1.00
15286;DHT22;7744;52.172;10.668;2023-01-15T17:52:05;6.30;1.00
15286;DHT22;7744;52.172;10.668;2023-01-15T17:54:31;6.20;1.00
15286;DHT22;7744;52.172;10.668;2023-01-15T17:57:35;6.10;1.00
15286;DHT22;7744;52.172;10.668;2023-01-15T18:00:20;6.80;1.00
15286;DHT22;7744;52.172;10.668;2023-01-15T18:03:04;6.20;1.00
15286;DHT22;7744;52.172;10.668;2023-01-15T18:05:49;6.20;1.00
15286;DHT22;7744;52.172;10.668;2023-01-15T18:08:16;6.30;1.00
15286;DHT22;7744;52.172;10.668;2023-01-15T18:10:43;6.30;1.00
15286;DHT22;7744;52.172;10.668;2023-01-15T18:13:09;6.30;1.00
15286;DHT22;7744;52.172;10.668;2023-01-15T18:15:37;6.30;1.00
15286;DHT22;7744;52.172;10.668;2023-01-15T18:18:03;6.30;1.00
15286;DHT22;7744;52.172;10.668;2023-01-15T18:20:28;6.30;1.00
15286;DHT22;7744;52.172;10.668;2023-01-15T18:22:54;6.40;1.00
15286;DHT22;7744;52.172;10.668;2023-01-15T18:25:19;6.40;1.00
15286;DHT22;7744;52.172;10.668;2023-01-15T18:27:45;5.70;1.00
15286;DHT22;7744;52.172;10.668;2023-01-15T18:30:13;6.30;1.00
15286;DHT22;7744;52.172;10.668;2023-01-15T18:32:39;6.30;1.00
15286;DHT22;7744;52.172;10.668;2023-01-15T18:35:06;6.30;1.00
15286;DHT22;7744;52.172;10.668;2023-01-15T18:37:32;6.30;1.00
15286;DHT22;7744;52.172;10.668;2023-01-15T18:39:58;6.30;1.00
15286;DHT22;7744;52.172;10.668;2023-01-15T18:42:24;6.40;99.90
15286;DHT22;7744;52.172;10.668;2023-01-15T18:45:09;6.40;99.90
15286;DHT22;7744;52.172;10.668;2023-01-15T18:47:53;6.30;1.00